sensor_id;sensor_type;location;lat;lon;timestamp;pressure;altitude;pressure_sealevel;temperature;humidity
16694;BME280;39538;52.196;9.892;2022-12-07T00:01:27;100362.41;;;2.39;100.00
16694;BME280;39538;52.196;9.892;2022-12-07T00:03:55;100357.84;;;2.44;100.00
16694;BME280;39538;52.196;9.892;2022-12-07T00:06:26;100365.66;;;2.46;100.00
16694;BME280;39538;52.196;9.892;2022-12-07T00:08:52;100364.69;;;2.48;100.00
16694;BME280;39538;52.196;9.892;2022-12-07T00:11:21;100353.47;;;2.45;100.00
16694;BME280;39538;52.196;9.892;2022-12-07T00:13:53;100346.47;;;2.45;100.00
16694;BME280;39538;52.196;9.892;2022-12-07T00:16:22;100347.97;;;2.51;100.00
16694;BME280;39538;52.196;9.892;2022-12-07T00:18:49;100344.50;;;2.50;100.00
16694;BME280;39538;52.196;9.892;2022-12-07T00:21:18;100337.63;;;2.48;100.00
16694;BME280;39538;52.196;9.892;2022-12-07T00:23:46;100340.19;;;2.49;100.00
16694;BME280;39538;52.196;9.892;2022-12-07T00:26:15;100350.69;;;2.49;100.00
16694;BME280;39538;52.196;9.892;2022-12-07T00:28:44;100345.31;;;2.52;100.00
16694;BME280;39538;52.196;9.892;2022-12-07T00:31:14;100334.69;;;2.56;100.00
16694;BME280;39538;52.196;9.892;2022-12-07T00:33:41;100338.94;;;2.58;100.00
16694;BME280;39538;52.196;9.892;2022-12-07T00:36:10;100333.03;;;2.53;100.00
16694;BME280;39538;52.196;9.892;2022-12-07T00:38:38;100334.50;;;2.60;100.00
16694;BME280;39538;52.196;9.892;2022-12-07T00:41:06;100340.84;;;2.55;100.00
16694;BME280;39538;52.196;9.892;2022-12-07T00:43:33;100330.25;;;2.58;100.00
16694;BME280;39538;52.196;9.892;2022-12-07T00:46:00;100326.97;;;2.52;100.00
16694;BME280;39538;52.196;9.892;2022-12-07T00:48:28;100327.81;;;2.53;100.00
16694;BME280;39538;52.196;9.892;2022-12-07T00:50:54;100320.91;;;2.50;100.00
16694;BME280;39538;52.196;9.892;2022-12-07T00:53:21;100317.44;;;2.50;100.00
16694;BME280;39538;52.196;9.892;2022-12-07T00:55:47;100317.50;;;2.48;100.00
16694;BME280;39538;52.196;9.892;2022-12-07T00:58:14;100297.53;;;2.46;100.00
16694;BME280;39538;52.196;9.892;2022-12-07T01:00:42;100310.44;;;2.50;100.00
16694;BME280;39538;52.196;9.892;2022-12-07T01:03:11;100305.19;;;2.50;100.00
16694;BME280;39538;52.196;9.892;2022-12-07T01:05:39;100308.59;;;2.52;100.00
16694;BME280;39538;52.196;9.892;2022-12-07T01:08:06;100295.56;;;2.51;100.00
16694;BME280;39538;52.196;9.892;2022-12-07T01:10:33;100294.72;;;2.50;100.00
16694;BME280;39538;52.196;9.892;2022-12-07T01:12:59;100298.13;;;2.52;100.00
16694;BME280;39538;52.196;9.892;2022-12-07T01:15:26;100301.41;;;2.58;100.00
16694;BME280;39538;52.196;9.892;2022-12-07T01:17:53;100299.56;;;2.60;100.00
16694;BME280;39538;52.196;9.892;2022-12-07T01:20:20;100298.72;;;2.59;100.00
16694;BME280;39538;52.196;9.892;2022-12-07T01:22:48;100299.44;;;2.63;100.00
16694;BME280;39538;52.196;9.892;2022-12-07T01:25:14;100299.56;;;2.60;100.00
16694;BME280;39538;52.196;9.892;2022-12-07T01:27:41;100290.78;;;2.61;100.00
16694;BME280;39538;52.196;9.892;2022-12-07T01:30:10;100295.00;;;2.65;100.00
16694;BME280;39538;52.196;9.892;2022-12-07T01:32:37;100303.66;;;2.67;100.00
16694;BME280;39538;52.196;9.892;2022-12-07T01:35:04;100292.31;;;2.66;100.00
16694;BME280;39538;52.196;9.892;2022-12-07T01:37:34;100291.34;;;2.69;100.00
16694;BME280;39538;52.196;9.892;2022-12-07T01:40:02;100287.00;;;2.68;100.00
16694;BME280;39538;52.196;9.892;2022-12-07T01:42:29;100283.53;;;2.67;100.00
16694;BME280;39538;52.196;9.892;2022-12-07T01:45:34;100287.88;;;2.68;100.00
16694;BME280;39538;52.196;9.892;2022-12-07T01:48:04;100287.97;;;2.65;100.00
16694;BME280;39538;52.196;9.892;2022-12-07T01:50:31;100291.53;;;2.64;100.00
16694;BME280;39538;52.196;9.892;2022-12-07T01:52:59;100286.47;;;2.60;100.00
16694;BME280;39538;52.196;9.892;2022-12-07T01:55:28;100273.31;;;2.61;100.00
16694;BME280;39538;52.196;9.892;2022-12-07T01:57:56;100280.44;;;2.58;100.00
16694;BME280;39538;52.196;9.892;2022-12-07T02:00:23;100284.66;;;2.62;100.00
16694;BME280;39538;52.196;9.892;2022-12-07T02:02:53;100282.88;;;2.62;100.00
16694;BME280;39538;52.196;9.892;2022-12-07T02:05:21;100289.63;;;2.68;100.00
16694;BME280;39538;52.196;9.892;2022-12-07T02:07:49;100286.09;;;2.69;100.00
16694;BME280;39538;52.196;9.892;2022-12-07T02:10:18;100274.69;;;2.70;100.00
16694;BME280;39538;52.196;9.892;2022-12-07T02:12:49;100278.28;;;2.67;100.00
16694;BME280;39538;52.196;9.892;2022-12-07T02:15:18;100273.81;;;2.69;100.00
16694;BME280;39538;52.196;9.892;2022-12-07T02:17:55;100269.53;;;2.68;100.00
16694;BME280;39538;52.196;9.892;2022-12-07T02:20:30;100265.31;;;2.64;100.00
16694;BME280;39538;52.196;9.892;2022-12-07T02:26:23;100268.41;;;2.74;100.00
16694;BME280;39538;52.196;9.892;2022-12-07T02:29:10;100268.19;;;2.79;100.00
16694;BME280;39538;52.196;9.892;2022-12-07T02:31:44;100263.81;;;2.79;100.00
16694;BME280;39538;52.196;9.892;2022-12-07T02:34:20;100256.72;;;2.81;100.00
16694;BME280;39538;52.196;9.892;2022-12-07T02:36:53;100257.78;;;2.77;100.00
16694;BME280;39538;52.196;9.892;2022-12-07T02:39:28;100251.88;;;2.72;100.00
16694;BME280;39538;52.196;9.892;2022-12-07T02:41:57;100241.88;;;2.61;100.00
16694;BME280;39538;52.196;9.892;2022-12-07T02:44:28;100248.84;;;2.61;100.00
16694;BME280;39538;52.196;9.892;2022-12-07T02:46:59;100251.75;;;2.55;100.00
16694;BME280;39538;52.196;9.892;2022-12-07T02:49:27;100244.88;;;2.52;100.00
16694;BME280;39538;52.196;9.892;2022-12-07T02:51:55;100244.91;;;2.50;100.00
16694;BME280;39538;52.196;9.892;2022-12-07T02:54:21;100239.88;;;2.46;100.00
16694;BME280;39538;52.196;9.892;2022-12-07T02:56:50;100240.06;;;2.41;100.00
16694;BME280;39538;52.196;9.892;2022-12-07T02:59:26;100229.81;;;2.35;100.00
16694;BME280;39538;52.196;9.892;2022-12-07T03:02:09;100232.81;;;2.26;100.00
16694;BME280;39538;52.196;9.892;2022-12-07T03:04:47;100228.69;;;2.20;100.00
16694;BME280;39538;52.196;9.892;2022-12-07T03:07:24;100230.56;;;2.17;100.00
16694;BME280;39538;52.196;9.892;2022-12-07T03:09:58;100232.44;;;2.15;100.00
16694;BME280;39538;52.196;9.892;2022-12-07T03:12:31;100238.50;;;2.15;100.00
16694;BME280;39538;52.196;9.892;2022-12-07T03:15:07;100240.28;;;2.15;100.00
16694;BME280;39538;52.196;9.892;2022-12-07T03:17:39;100235.91;;;2.15;100.00
16694;BME280;39538;52.196;9.892;2022-12-07T03:20:09;100231.50;;;2.16;100.00
16694;BME280;39538;52.196;9.892;2022-12-07T03:22:38;100237.66;;;2.15;100.00
16694;BME280;39538;52.196;9.892;2022-12-07T03:25:10;100234.13;;;2.16;100.00
16694;BME280;39538;52.196;9.892;2022-12-07T03:27:41;100230.56;;;2.17;100.00
16694;BME280;39538;52.196;9.892;2022-12-07T03:30:14;100225.28;;;2.18;100.00
16694;BME280;39538;52.196;9.892;2022-12-07T03:32:45;100228.75;;;2.19;100.00
16694;BME280;39538;52.196;9.892;2022-12-07T03:35:17;100226.88;;;2.22;100.00
16694;BME280;39538;52.196;9.892;2022-12-07T03:37:49;100224.38;;;2.19;100.00
16694;BME280;39538;52.196;9.892;2022-12-07T03:40:22;100219.34;;;2.15;100.00
16694;BME280;39538;52.196;9.892;2022-12-07T03:42:52;100222.00;;;2.13;100.00
16694;BME280;39538;52.196;9.892;2022-12-07T03:45:23;100227.06;;;2.18;100.00
16694;BME280;39538;52.196;9.892;2022-12-07T03:47:58;100223.59;;;2.17;100.00
16694;BME280;39538;52.196;9.892;2022-12-07T03:50:31;100219.19;;;2.18;100.00
16694;BME280;39538;52.196;9.892;2022-12-07T03:53:02;100225.75;;;2.28;100.00
16694;BME280;39538;52.196;9.892;2022-12-07T03:55:33;100227.47;;;2.29;100.00
16694;BME280;39538;52.196;9.892;2022-12-07T03:58:04;100226.59;;;2.28;100.00
16694;BME280;39538;52.196;9.892;2022-12-07T04:00:32;100234.41;;;2.30;100.00
16694;BME280;39538;52.196;9.892;2022-12-07T04:03:00;100227.59;;;2.26;100.00
16694;BME280;39538;52.196;9.892;2022-12-07T04:05:26;100222.34;;;2.26;100.00
16694;BME280;39538;52.196;9.892;2022-12-07T04:07:54;100227.47;;;2.29;100.00
16694;BME280;39538;52.196;9.892;2022-12-07T04:10:20;100222.28;;;2.27;100.00
16694;BME280;39538;52.196;9.892;2022-12-07T04:12:47;100226.06;;;2.20;100.00
16694;BME280;39538;52.196;9.892;2022-12-07T04:15:13;100225.47;;;2.14;100.00
16694;BME280;39538;52.196;9.892;2022-12-07T04:17:40;100224.69;;;2.11;100.00
16694;BME280;39538;52.196;9.892;2022-12-07T04:20:10;100230.88;;;2.09;100.00
16694;BME280;39538;52.196;9.892;2022-12-07T04:22:36;100228.47;;;2.04;100.00
16694;BME280;39538;52.196;9.892;2022-12-07T04:25:04;100231.16;;;2.03;100.00
16694;BME280;39538;52.196;9.892;2022-12-07T04:27:30;100227.56;;;2.05;100.00
16694;BME280;39538;52.196;9.892;2022-12-07T04:29:57;100228.13;;;2.12;100.00
16694;BME280;39538;52.196;9.892;2022-12-07T04:32:23;100229.63;;;2.19;100.00
16694;BME280;39538;52.196;9.892;2022-12-07T04:34:50;100229.44;;;2.24;100.00
16694;BME280;39538;52.196;9.892;2022-12-07T04:37:18;100231.00;;;2.28;100.00
16694;BME280;39538;52.196;9.892;2022-12-07T04:39:44;100228.97;;;2.35;100.00
16694;BME280;39538;52.196;9.892;2022-12-07T04:42:11;100222.75;;;2.37;100.00
16694;BME280;39538;52.196;9.892;2022-12-07T04:44:38;100228.66;;;2.42;100.00
16694;BME280;39538;52.196;9.892;2022-12-07T04:47:05;100223.16;;;2.48;100.00
16694;BME280;39538;52.196;9.892;2022-12-07T04:49:31;100230.00;;;2.52;100.00
16694;BME280;39538;52.196;9.892;2022-12-07T04:51:58;100218.78;;;2.49;100.00
16694;BME280;39538;52.196;9.892;2022-12-07T04:54:26;100223.81;;;2.53;100.00
16694;BME280;39538;52.196;9.892;2022-12-07T04:56:52;100219.50;;;2.52;100.00
16694;BME280;39538;52.196;9.892;2022-12-07T04:59:19;100212.44;;;2.55;100.00
16694;BME280;39538;52.196;9.892;2022-12-07T05:01:45;100215.84;;;2.57;100.00
16694;BME280;39538;52.196;9.892;2022-12-07T05:04:12;100218.47;;;2.57;100.00
16694;BME280;39538;52.196;9.892;2022-12-07T05:06:38;100210.41;;;2.61;100.00
16694;BME280;39538;52.196;9.892;2022-12-07T05:09:05;100214.88;;;2.59;100.00
16694;BME280;39538;52.196;9.892;2022-12-07T05:11:33;100216.59;;;2.59;100.00
16694;BME280;39538;52.196;9.892;2022-12-07T05:14:09;100220.94;;;2.60;100.00
16694;BME280;39538;52.196;9.892;2022-12-07T05:16:36;100215.84;;;2.57;100.00
16694;BME280;39538;52.196;9.892;2022-12-07T05:19:03;100223.63;;;2.58;100.00
16694;BME280;39538;52.196;9.892;2022-12-07T05:21:29;100220.34;;;2.53;100.00
16694;BME280;39538;52.196;9.892;2022-12-07T05:23:56;100219.66;;;2.49;100.00
16694;BME280;39538;52.196;9.892;2022-12-07T05:26:23;100218.84;;;2.47;100.00
16694;BME280;39538;52.196;9.892;2022-12-07T05:28:52;100216.94;;;2.51;100.00
16694;BME280;39538;52.196;9.892;2022-12-07T05:31:18;100221.38;;;2.49;100.00
16694;BME280;39538;52.196;9.892;2022-12-07T05:33:45;100204.03;;;2.46;100.00
16694;BME280;39538;52.196;9.892;2022-12-07T05:36:12;100208.22;;;2.50;100.00
16694;BME280;39538;52.196;9.892;2022-12-07T05:38:39;100207.44;;;2.48;100.00
16694;BME280;39538;52.196;9.892;2022-12-07T05:41:07;100194.19;;;2.51;100.00
16694;BME280;39538;52.196;9.892;2022-12-07T05:43:55;100209.81;;;2.55;100.00
16694;BME280;39538;52.196;9.892;2022-12-07T05:46:22;100208.84;;;2.57;100.00
16694;BME280;39538;52.196;9.892;2022-12-07T05:48:49;100213.22;;;2.57;100.00
16694;BME280;39538;52.196;9.892;2022-12-07T05:51:15;100209.72;;;2.56;100.00
16694;BME280;39538;52.196;9.892;2022-12-07T05:53:42;100209.03;;;2.52;100.00
16694;BME280;39538;52.196;9.892;2022-12-07T05:56:08;100198.53;;;2.52;100.00
16694;BME280;39538;52.196;9.892;2022-12-07T05:58:35;100208.28;;;2.49;100.00
16694;BME280;39538;52.196;9.892;2022-12-07T06:01:20;100206.31;;;2.54;100.00
16694;BME280;39538;52.196;9.892;2022-12-07T06:03:47;100205.63;;;2.50;100.00
16694;BME280;39538;52.196;9.892;2022-12-07T06:06:13;100205.56;;;2.52;100.00
16694;BME280;39538;52.196;9.892;2022-12-07T06:08:40;100203.69;;;2.54;100.00
16694;BME280;39538;52.196;9.892;2022-12-07T06:11:06;100205.47;;;2.53;100.00
16694;BME280;39538;52.196;9.892;2022-12-07T06:13:50;100211.44;;;2.57;100.00
16694;BME280;39538;52.196;9.892;2022-12-07T06:16:19;100213.94;;;2.60;100.00
16694;BME280;39538;52.196;9.892;2022-12-07T06:18:45;100219.03;;;2.63;100.00
16694;BME280;39538;52.196;9.892;2022-12-07T06:21:12;100222.38;;;2.67;100.00
16694;BME280;39538;52.196;9.892;2022-12-07T06:23:39;100219.63;;;2.70;100.00
16694;BME280;39538;52.196;9.892;2022-12-07T06:26:06;100213.50;;;2.71;100.00
16694;BME280;39538;52.196;9.892;2022-12-07T06:28:32;100220.56;;;2.69;100.00
16694;BME280;39538;52.196;9.892;2022-12-07T06:30:59;100222.13;;;2.73;100.00
16694;BME280;39538;52.196;9.892;2022-12-07T06:33:28;100223.81;;;2.74;100.00
16694;BME280;39538;52.196;9.892;2022-12-07T06:35:55;100218.53;;;2.76;100.00
16694;BME280;39538;52.196;9.892;2022-12-07T06:38:21;100227.94;;;2.80;100.00
16694;BME280;39538;52.196;9.892;2022-12-07T06:40:48;100220.06;;;2.80;100.00
16694;BME280;39538;52.196;9.892;2022-12-07T06:43:14;100227.09;;;2.79;100.00
16694;BME280;39538;52.196;9.892;2022-12-07T06:45:41;100218.91;;;2.87;100.00
16694;BME280;39538;52.196;9.892;2022-12-07T06:48:08;100224.88;;;2.90;100.00
16694;BME280;39538;52.196;9.892;2022-12-07T06:50:36;100220.56;;;2.89;100.00
16694;BME280;39538;52.196;9.892;2022-12-07T06:53:02;100220.28;;;2.95;100.00
16694;BME280;39538;52.196;9.892;2022-12-07T06:55:29;100225.47;;;2.97;100.00
16694;BME280;39538;52.196;9.892;2022-12-07T06:57:55;100228.13;;;2.95;100.00
16694;BME280;39538;52.196;9.892;2022-12-07T07:00:22;100224.66;;;2.95;100.00
16694;BME280;39538;52.196;9.892;2022-12-07T07:02:48;100220.91;;;3.01;100.00
16694;BME280;39538;52.196;9.892;2022-12-07T07:05:15;100222.44;;;3.06;100.00
16694;BME280;39538;52.196;9.892;2022-12-07T07:07:43;100226.88;;;3.04;100.00
16694;BME280;39538;52.196;9.892;2022-12-07T07:10:10;100234.91;;;3.01;100.00
16694;BME280;39538;52.196;9.892;2022-12-07T07:12:36;100230.66;;;2.99;100.00
16694;BME280;39538;52.196;9.892;2022-12-07T07:15:04;100224.59;;;2.97;100.00
16694;BME280;39538;52.196;9.892;2022-12-07T07:17:30;100222.97;;;2.94;100.00
16694;BME280;39538;52.196;9.892;2022-12-07T07:19:57;100231.53;;;2.98;100.00
16694;BME280;39538;52.196;9.892;2022-12-07T07:22:23;100232.47;;;2.97;100.00
16694;BME280;39538;52.196;9.892;2022-12-07T07:24:51;100229.97;;;2.93;100.00
16694;BME280;39538;52.196;9.892;2022-12-07T07:27:18;100238.78;;;2.92;100.00
16694;BME280;39538;52.196;9.892;2022-12-07T07:29:44;100243.22;;;2.90;100.00
16694;BME280;39538;52.196;9.892;2022-12-07T07:32:11;100230.91;;;2.92;100.00
16694;BME280;39538;52.196;9.892;2022-12-07T07:34:37;100230.66;;;2.99;100.00
16694;BME280;39538;52.196;9.892;2022-12-07T07:37:04;100238.38;;;3.02;100.00
16694;BME280;39538;52.196;9.892;2022-12-07T07:39:30;100242.75;;;3.01;100.00
16694;BME280;39538;52.196;9.892;2022-12-07T07:41:58;100247.09;;;3.02;100.00
16694;BME280;39538;52.196;9.892;2022-12-07T07:44:25;100247.22;;;2.99;100.00
16694;BME280;39538;52.196;9.892;2022-12-07T07:46:51;100248.81;;;3.03;100.00
16694;BME280;39538;52.196;9.892;2022-12-07T07:49:18;100243.63;;;3.02;100.00
16694;BME280;39538;52.196;9.892;2022-12-07T07:51:44;100248.13;;;2.98;100.00
16694;BME280;39538;52.196;9.892;2022-12-07T07:54:11;100249.00;;;2.99;100.00
16694;BME280;39538;52.196;9.892;2022-12-07T07:56:37;100250.84;;;2.97;100.00
16694;BME280;39538;52.196;9.892;2022-12-07T07:59:05;100253.56;;;2.93;100.00
16694;BME280;39538;52.196;9.892;2022-12-07T08:01:32;100249.19;;;2.94;100.00
16694;BME280;39538;52.196;9.892;2022-12-07T08:03:58;100258.69;;;2.97;100.00
16694;BME280;39538;52.196;9.892;2022-12-07T08:06:25;100252.53;;;2.98;100.00
16694;BME280;39538;52.196;9.892;2022-12-07T08:08:51;100260.34;;;2.99;100.00
16694;BME280;39538;52.196;9.892;2022-12-07T08:11:18;100252.38;;;3.01;100.00
16694;BME280;39538;52.196;9.892;2022-12-07T08:13:45;100259.56;;;2.97;100.00
16694;BME280;39538;52.196;9.892;2022-12-07T08:16:13;100258.41;;;3.03;100.00
16694;BME280;39538;52.196;9.892;2022-12-07T08:18:41;100262.97;;;2.99;100.00
16694;BME280;39538;52.196;9.892;2022-12-07T08:21:11;100257.50;;;3.04;100.00
16694;BME280;39538;52.196;9.892;2022-12-07T08:23:38;100252.38;;;3.01;100.00
16694;BME280;39538;52.196;9.892;2022-12-07T08:26:06;100255.78;;;3.03;100.00
16694;BME280;39538;52.196;9.892;2022-12-07T08:28:33;100253.97;;;3.05;100.00
16694;BME280;39538;52.196;9.892;2022-12-07T08:31:00;100254.28;;;3.17;100.00
16694;BME280;39538;52.196;9.892;2022-12-07T08:33:28;100256.50;;;3.27;100.00
16694;BME280;39538;52.196;9.892;2022-12-07T08:36:01;100254.56;;;3.30;100.00
16694;BME280;39538;52.196;9.892;2022-12-07T08:38:27;100246.59;;;3.33;100.00
16694;BME280;39538;52.196;9.892;2022-12-07T08:40:54;100252.28;;;3.43;100.00
16694;BME280;39538;52.196;9.892;2022-12-07T08:43:22;100253.75;;;3.49;100.00
16694;BME280;39538;52.196;9.892;2022-12-07T08:45:59;100249.91;;;3.56;100.00
16694;BME280;39538;52.196;9.892;2022-12-07T08:48:32;100251.50;;;3.60;100.00
16694;BME280;39538;52.196;9.892;2022-12-07T08:51:01;100252.28;;;3.62;100.00
16694;BME280;39538;52.196;9.892;2022-12-07T08:53:28;100258.56;;;3.77;100.00
16694;BME280;39538;52.196;9.892;2022-12-07T08:55:56;100267.81;;;3.86;100.00
16694;BME280;39538;52.196;9.892;2022-12-07T08:58:23;100266.13;;;3.85;100.00
16694;BME280;39538;52.196;9.892;2022-12-07T09:00:50;100264.91;;;3.92;100.00
16694;BME280;39538;52.196;9.892;2022-12-07T09:03:16;100269.06;;;3.96;100.00
16694;BME280;39538;52.196;9.892;2022-12-07T09:05:44;100269.84;;;3.98;100.00
16694;BME280;39538;52.196;9.892;2022-12-07T09:08:11;100271.56;;;3.99;100.00
16694;BME280;39538;52.196;9.892;2022-12-07T09:10:38;100262.47;;;4.06;100.00
16694;BME280;39538;52.196;9.892;2022-12-07T09:13:04;100263.56;;;4.19;100.00
16694;BME280;39538;52.196;9.892;2022-12-07T09:15:31;100266.75;;;4.26;100.00
16694;BME280;39538;52.196;9.892;2022-12-07T09:17:57;100262.06;;;4.33;100.00
16694;BME280;39538;52.196;9.892;2022-12-07T09:20:24;100272.50;;;4.34;100.00
16694;BME280;39538;52.196;9.892;2022-12-07T09:22:52;100265.00;;;4.27;99.96
16694;BME280;39538;52.196;9.892;2022-12-07T09:25:18;100267.31;;;4.33;99.88
16694;BME280;39538;52.196;9.892;2022-12-07T09:27:45;100273.00;;;4.23;99.67
16694;BME280;39538;52.196;9.892;2022-12-07T09:30:12;100278.69;;;4.14;99.37
16694;BME280;39538;52.196;9.892;2022-12-07T09:32:38;100280.72;;;4.09;98.64
16694;BME280;39538;52.196;9.892;2022-12-07T09:35:05;100270.91;;;4.13;98.36
16694;BME280;39538;52.196;9.892;2022-12-07T09:37:32;100284.91;;;4.13;98.28
16694;BME280;39538;52.196;9.892;2022-12-07T09:40:04;100267.28;;;4.15;98.15
16694;BME280;39538;52.196;9.892;2022-12-07T09:42:34;100268.19;;;4.14;98.27
16694;BME280;39538;52.196;9.892;2022-12-07T09:45:01;100273.44;;;4.14;98.24
16694;BME280;39538;52.196;9.892;2022-12-07T09:47:29;100262.09;;;4.14;98.56
16694;BME280;39538;52.196;9.892;2022-12-07T09:50:00;100254.59;;;4.06;98.17
16694;BME280;39538;52.196;9.892;2022-12-07T09:52:29;100258.13;;;4.05;98.25
16694;BME280;39538;52.196;9.892;2022-12-07T09:54:57;100248.19;;;4.12;98.35
16694;BME280;39538;52.196;9.892;2022-12-07T09:57:29;100257.63;;;4.16;98.12
16694;BME280;39538;52.196;9.892;2022-12-07T09:59:57;100248.53;;;4.40;98.08
16694;BME280;39538;52.196;9.892;2022-12-07T10:02:36;100252.75;;;4.62;96.68
16694;BME280;39538;52.196;9.892;2022-12-07T10:05:05;100243.97;;;4.79;95.48
16694;BME280;39538;52.196;9.892;2022-12-07T10:07:32;100253.03;;;5.24;94.59
16694;BME280;39538;52.196;9.892;2022-12-07T10:09:58;100252.34;;;6.49;91.16
16694;BME280;39538;52.196;9.892;2022-12-07T10:12:26;100253.81;;;7.13;86.36
16694;BME280;39538;52.196;9.892;2022-12-07T10:14:55;100265.88;;;7.46;84.01
16694;BME280;39538;52.196;9.892;2022-12-07T10:17:31;100264.75;;;7.65;81.56
16694;BME280;39538;52.196;9.892;2022-12-07T10:20:20;100262.69;;;7.55;80.32
16694;BME280;39538;52.196;9.892;2022-12-07T10:22:59;100251.31;;;8.36;77.52
16694;BME280;39538;52.196;9.892;2022-12-07T10:25:29;100254.13;;;7.93;76.23
16694;BME280;39538;52.196;9.892;2022-12-07T10:28:00;100252.06;;;7.84;76.28
16694;BME280;39538;52.196;9.892;2022-12-07T10:30:27;100262.41;;;7.60;76.09
16694;BME280;39538;52.196;9.892;2022-12-07T10:32:53;100267.09;;;7.41;76.60
16694;BME280;39538;52.196;9.892;2022-12-07T10:35:24;100260.09;;;7.11;77.54
16694;BME280;39538;52.196;9.892;2022-12-07T10:37:52;100254.69;;;6.84;78.69
16694;BME280;39538;52.196;9.892;2022-12-07T10:40:31;100254.25;;;6.61;79.99
16694;BME280;39538;52.196;9.892;2022-12-07T10:43:18;100255.56;;;6.38;81.23
16694;BME280;39538;52.196;9.892;2022-12-07T10:48:55;100244.91;;;6.09;83.08
16694;BME280;39538;52.196;9.892;2022-12-07T10:51:28;100247.78;;;5.89;84.12
16694;BME280;39538;52.196;9.892;2022-12-07T10:54:10;100236.97;;;5.94;84.46
16694;BME280;39538;52.196;9.892;2022-12-07T10:57:01;100246.59;;;5.79;85.07
16694;BME280;39538;52.196;9.892;2022-12-07T11:00:01;100250.91;;;5.64;85.69
16694;BME280;39538;52.196;9.892;2022-12-07T11:03:00;100246.63;;;5.30;87.00
16694;BME280;39538;52.196;9.892;2022-12-07T11:05:39;100245.09;;;5.08;87.42
16694;BME280;39538;52.196;9.892;2022-12-07T11:08:15;100227.03;;;4.84;88.49
16694;BME280;39538;52.196;9.892;2022-12-07T11:10:48;100222.63;;;4.85;90.19
16694;BME280;39538;52.196;9.892;2022-12-07T11:13:24;100224.19;;;4.72;90.54
16694;BME280;39538;52.196;9.892;2022-12-07T11:16:11;100228.81;;;4.84;91.28
16694;BME280;39538;52.196;9.892;2022-12-07T11:18:47;100232.69;;;4.94;91.60
16694;BME280;39538;52.196;9.892;2022-12-07T11:21:20;100226.69;;;5.41;91.36
16694;BME280;39538;52.196;9.892;2022-12-07T11:23:56;100225.00;;;6.20;88.39
16694;BME280;39538;52.196;9.892;2022-12-07T11:26:42;100224.16;;;6.19;85.77
16694;BME280;39538;52.196;9.892;2022-12-07T11:29:23;100221.28;;;6.08;83.99
16694;BME280;39538;52.196;9.892;2022-12-07T11:32:04;100216.00;;;5.92;84.37
16694;BME280;39538;52.196;9.892;2022-12-07T11:34:39;100212.09;;;5.83;85.03
16694;BME280;39538;52.196;9.892;2022-12-07T11:37:13;100218.97;;;5.86;86.17
16694;BME280;39538;52.196;9.892;2022-12-07T11:39:44;100208.78;;;5.96;86.09
16694;BME280;39538;52.196;9.892;2022-12-07T11:42:15;100205.81;;;5.70;85.50
16694;BME280;39538;52.196;9.892;2022-12-07T11:44:48;100207.56;;;5.38;86.14
16694;BME280;39538;52.196;9.892;2022-12-07T11:47:25;100211.28;;;5.18;87.61
16694;BME280;39538;52.196;9.892;2022-12-07T11:49:56;100209.19;;;5.07;89.11
16694;BME280;39538;52.196;9.892;2022-12-07T11:52:32;100193.63;;;5.36;89.46
16694;BME280;39538;52.196;9.892;2022-12-07T11:55:19;100188.47;;;5.34;88.41
16694;BME280;39538;52.196;9.892;2022-12-07T11:57:53;100183.53;;;5.28;88.57
16694;BME280;39538;52.196;9.892;2022-12-07T12:00:22;100184.00;;;5.19;88.65
16694;BME280;39538;52.196;9.892;2022-12-07T12:02:57;100179.72;;;5.00;89.18
16694;BME280;39538;52.196;9.892;2022-12-07T12:05:26;100187.44;;;4.88;90.37
16694;BME280;39538;52.196;9.892;2022-12-07T12:08:00;100183.91;;;4.71;91.50
16694;BME280;39538;52.196;9.892;2022-12-07T12:10:38;100174.81;;;4.77;93.00
16694;BME280;39538;52.196;9.892;2022-12-07T12:13:29;100186.72;;;4.84;92.96
16694;BME280;39538;52.196;9.892;2022-12-07T12:16:15;100177.69;;;4.72;92.64
16694;BME280;39538;52.196;9.892;2022-12-07T12:18:58;100185.41;;;4.75;92.91
16694;BME280;39538;52.196;9.892;2022-12-07T12:21:29;100182.41;;;4.83;92.35
16694;BME280;39538;52.196;9.892;2022-12-07T12:23:59;100180.78;;;4.80;91.00
16694;BME280;39538;52.196;9.892;2022-12-07T12:26:29;100175.31;;;4.68;89.04
16694;BME280;39538;52.196;9.892;2022-12-07T12:28:58;100177.25;;;4.64;88.50
16694;BME280;39538;52.196;9.892;2022-12-07T12:31:33;100176.56;;;4.60;89.59
16694;BME280;39538;52.196;9.892;2022-12-07T12:34:14;100173.47;;;4.52;89.93
16694;BME280;39538;52.196;9.892;2022-12-07T12:36:51;100173.31;;;4.55;89.42
16694;BME280;39538;52.196;9.892;2022-12-07T12:39:18;100172.06;;;4.62;89.49
16694;BME280;39538;52.196;9.892;2022-12-07T12:41:59;100166.03;;;4.60;89.06
16694;BME280;39538;52.196;9.892;2022-12-07T12:45:17;100157.06;;;4.64;89.34
16694;BME280;39538;52.196;9.892;2022-12-07T12:48:09;100158.75;;;4.83;90.30
16694;BME280;39538;52.196;9.892;2022-12-07T12:51:38;100149.41;;;5.58;90.30
16694;BME280;39538;52.196;9.892;2022-12-07T12:54:12;100153.16;;;6.16;87.64
16694;BME280;39538;52.196;9.892;2022-12-07T12:56:45;100146.78;;;6.20;86.19
16694;BME280;39538;52.196;9.892;2022-12-07T12:59:33;100145.06;;;6.19;84.80
16694;BME280;39538;52.196;9.892;2022-12-07T13:02:16;100151.06;;;6.37;84.88
16694;BME280;39538;52.196;9.892;2022-12-07T13:04:51;100136.34;;;6.33;83.37
16694;BME280;39538;52.196;9.892;2022-12-07T13:10:39;100137.31;;;6.02;83.28
16694;BME280;39538;52.196;9.892;2022-12-07T13:13:34;100134.59;;;5.87;83.44
16694;BME280;39538;52.196;9.892;2022-12-07T13:19:53;100139.19;;;5.68;84.52
16694;BME280;39538;52.196;9.892;2022-12-07T13:22:44;100135.78;;;5.66;84.42
16694;BME280;39538;52.196;9.892;2022-12-07T13:25:19;100140.47;;;5.61;83.51